Time;durP1;ratioP1;P1;durP2;ratioP2;P2;SDS_P1;SDS_P2;PMS_P1;PMS_P2;Temp;Humidity;BMP_temperature;BMP_pressure;BME280_temperature;BME280_humidity;BME280_pressure;Samples;Min_cycle;Max_cycle;Signal;HPM_P1;HPM_P2
2022/07/21 00:00:53;;;;;;;8.63;7.32;;;21.40;73.20;;;;;;4978781;28;20109;-77
2022/07/21 00:03:19;;;;;;;10.23;7.13;;;21.30;76.20;;;;;;5014601;28;20034;-77
2022/07/21 00:05:44;;;;;;;14.95;7.30;;;21.40;77.50;;;;;;5007406;28;20052;-77
2022/07/21 00:08:10;;;;;;;8.70;6.72;;;21.20;78.70;;;;;;4999054;28;20092;-78
2022/07/21 00:10:35;;;;;;;9.02;6.60;;;20.60;76.60;;;;;;4991513;28;20034;-78
2022/07/21 00:13:01;;;;;;;9.15;6.40;;;20.50;75.90;;;;;;5003824;28;20100;-78
2022/07/21 00:15:27;;;;;;;10.98;7.57;;;20.60;75.70;;;;;;4987379;28;20136;-77
2022/07/21 00:17:52;;;;;;;11.57;7.70;;;20.80;78.70;;;;;;4972822;28;20037;-77
2022/07/21 00:20:18;;;;;;;11.40;7.60;;;20.70;74.90;;;;;;4998710;28;20042;-77
2022/07/21 00:22:44;;;;;;;13.32;8.65;;;20.60;75.20;;;;;;4987782;28;20072;-77
2022/07/21 00:25:10;;;;;;;8.07;7.25;;;20.50;74.60;;;;;;4996820;28;20030;-77
2022/07/21 00:27:36;;;;;;;9.25;7.25;;;20.50;75.40;;;;;;4997830;28;20037;-77
2022/07/21 00:30:06;;;;;;;12.00;8.13;;;20.50;74.90;;;;;;4978268;28;20038;-77
2022/07/21 00:32:32;;;;;;;7.93;7.13;;;20.50;75.80;;;;;;5007467;28;20029;-77
2022/07/21 00:34:57;;;;;;;9.75;7.20;;;20.50;74.90;;;;;;5007437;28;20401;-77
2022/07/21 00:37:23;;;;;;;8.05;7.10;;;20.40;74.10;;;;;;5012439;28;20034;-78
2022/07/21 00:39:50;;;;;;;8.77;7.88;;;20.40;74.40;;;;;;5031337;28;20042;-78
2022/07/21 00:42:29;;;;;;;9.27;7.28;;;20.40;74.00;;;;;;4994431;28;20117;-78
2022/07/21 00:44:55;;;;;;;7.38;6.47;;;20.40;74.40;;;;;;5000762;28;20045;-78
2022/07/21 00:47:24;;;;;;;10.30;8.65;;;20.50;74.90;;;;;;5004801;28;20033;-78
2022/07/21 00:49:50;;;;;;;7.47;6.40;;;20.50;81.80;;;;;;4984973;28;20068;-78
2022/07/21 00:52:16;;;;;;;6.82;6.00;;;20.70;79.80;;;;;;5002132;28;20037;-78
2022/07/21 00:54:42;;;;;;;12.73;7.85;;;20.60;80.70;;;;;;4989521;28;20088;-78
2022/07/21 00:57:08;;;;;;;9.30;8.30;;;20.70;83.20;;;;;;4966596;28;20038;-77
2022/07/21 00:59:34;;;;;;;7.38;6.03;;;20.50;82.80;;;;;;4962466;28;20049;-78
2022/07/21 01:01:59;;;;;;;8.23;7.43;;;20.60;82.40;;;;;;4963030;28;20027;-77
2022/07/21 01:04:26;;;;;;;9.13;7.63;;;20.70;83.60;;;;;;5010779;28;20034;-77
2022/07/21 01:06:53;;;;;;;7.70;6.88;;;20.60;82.80;;;;;;5001207;28;20142;-78
2022/07/21 01:09:19;;;;;;;11.15;7.47;;;20.50;85.50;;;;;;5009040;28;20091;-78
2022/07/21 01:11:45;;;;;;;11.25;9.18;;;20.60;85.70;;;;;;4995848;28;20504;-78
2022/07/21 01:14:10;;;;;;;7.25;6.50;;;20.50;91.90;;;;;;4987179;28;20069;-78
2022/07/21 01:16:36;;;;;;;9.30;7.93;;;20.40;86.70;;;;;;4987379;28;20031;-78
2022/07/21 01:19:01;;;;;;;7.90;6.18;;;20.60;90.70;;;;;;4995552;28;20037;-78
2022/07/21 01:21:31;;;;;;;10.60;5.97;;;20.50;90.10;;;;;;4960070;28;20444;-77
2022/07/21 01:23:57;;;;;;;11.60;6.15;;;20.90;87.90;;;;;;5000872;28;20030;-77
2022/07/21 01:26:22;;;;;;;7.82;5.78;;;21.20;87.20;;;;;;4992383;28;20037;-77
2022/07/21 01:28:48;;;;;;;8.13;6.60;;;21.10;89.60;;;;;;4973654;28;20524;-77
2022/07/21 01:31:13;;;;;;;9.18;8.20;;;20.90;90.50;;;;;;4974147;28;20202;-78
2022/07/21 01:33:40;;;;;;;10.15;8.00;;;20.60;90.10;;;;;;5005015;28;20616;-77
2022/07/21 01:36:06;;;;;;;9.23;7.35;;;20.70;91.10;;;;;;4996601;28;20038;-77
2022/07/21 01:41:32;;;;;;;10.48;7.53;;;20.70;91.40;;;;;;4994191;28;20203;-77
2022/07/21 01:44:00;;;;;;;8.55;6.82;;;20.60;91.60;;;;;;4993982;28;20596;-77
2022/07/21 01:46:25;;;;;;;7.68;6.88;;;20.70;92.30;;;;;;4991073;28;20038;-77
2022/07/21 01:48:51;;;;;;;10.30;7.32;;;20.60;92.90;;;;;;4986702;28;20446;-79
2022/07/21 01:51:16;;;;;;;9.80;7.45;;;20.30;93.10;;;;;;5005811;28;20052;-78
2022/07/21 01:53:42;;;;;;;9.85;6.15;;;20.20;93.00;;;;;;5022212;28;20221;-79
2022/07/21 01:56:07;;;;;;;10.52;7.75;;;20.30;93.20;;;;;;4978828;28;20026;-78
2022/07/21 01:58:33;;;;;;;8.35;6.60;;;20.40;93.40;;;;;;4967520;28;20283;-79
2022/07/21 02:00:59;;;;;;;7.72;6.00;;;20.10;93.20;;;;;;5010194;28;20125;-79
2022/07/21 02:03:24;;;;;;;7.15;6.20;;;20.30;93.40;;;;;;4965393;28;20207;-79
2022/07/21 02:05:50;;;;;;;8.48;7.03;;;20.40;93.90;;;;;;4991361;28;20838;-78
2022/07/21 02:08:15;;;;;;;8.05;6.13;;;20.20;93.70;;;;;;5001300;28;20121;-77
2022/07/21 02:10:41;;;;;;;9.00;5.82;;;20.10;93.60;;;;;;4977167;28;20125;-77
2022/07/21 02:13:06;;;;;;;7.45;5.50;;;20.10;93.90;;;;;;4977357;28;20033;-78
2022/07/21 02:15:32;;;;;;;5.95;4.97;;;20.20;93.80;;;;;;4996335;28;20077;-78
2022/07/21 02:17:58;;;;;;;6.47;5.35;;;20.40;93.80;;;;;;4978119;28;20062;-78
2022/07/21 02:20:24;;;;;;;9.32;6.00;;;20.50;94.30;;;;;;4992350;28;20034;-78
2022/07/21 02:22:50;;;;;;;9.30;5.40;;;20.30;94.80;;;;;;4991556;28;20038;-78
2022/07/21 02:25:16;;;;;;;6.90;5.82;;;20.10;95.10;;;;;;4979251;28;20037;-78
2022/07/21 02:27:42;;;;;;;20.52;6.60;;;19.90;94.20;;;;;;5013265;28;20206;-78
2022/07/21 02:30:08;;;;;;;14.55;6.63;;;19.70;96.60;;;;;;4982327;28;20065;-78
2022/07/21 02:32:34;;;;;;;8.00;5.57;;;19.60;95.00;;;;;;4990735;28;20038;-78
2022/07/21 02:34:59;;;;;;;10.90;7.25;;;19.60;96.00;;;;;;4989419;28;20549;-78
2022/07/21 02:37:25;;;;;;;7.90;6.18;;;19.60;95.40;;;;;;5000582;28;20037;-78
2022/07/21 02:39:50;;;;;;;7.53;5.90;;;19.50;97.20;;;;;;5004020;28;20071;-77
2022/07/21 02:42:16;;;;;;;7.05;5.88;;;19.60;96.10;;;;;;5003543;28;20053;-78
2022/07/21 02:44:41;;;;;;;7.32;6.15;;;19.60;95.80;;;;;;4992092;28;20485;-78
2022/07/21 02:47:07;;;;;;;6.68;5.72;;;19.50;96.10;;;;;;4999779;28;20478;-78
2022/07/21 02:49:32;;;;;;;8.57;5.32;;;19.60;96.20;;;;;;4989244;28;20144;-77
2022/07/21 02:51:58;;;;;;;6.68;5.95;;;19.60;96.30;;;;;;4993480;28;20026;-78
2022/07/21 02:54:23;;;;;;;7.55;5.35;;;19.40;95.60;;;;;;5011799;28;20040;-77
2022/07/21 02:56:49;;;;;;;11.57;6.20;;;19.40;95.70;;;;;;4989064;28;20058;-77
2022/07/21 02:59:15;;;;;;;7.13;6.43;;;19.30;96.00;;;;;;4993856;28;20038;-78
2022/07/21 03:01:40;;;;;;;8.73;6.38;;;19.20;96.10;;;;;;5005074;28;20034;-78
2022/07/21 03:04:06;;;;;;;8.32;5.78;;;19.20;97.40;;;;;;5007212;28;20030;-78
2022/07/21 03:06:32;;;;;;;7.82;5.88;;;19.20;96.90;;;;;;4999894;28;20061;-78
2022/07/21 03:08:57;;;;;;;5.82;5.10;;;19.20;98.30;;;;;;5004157;28;20053;-78
2022/07/21 03:11:23;;;;;;;7.20;6.22;;;19.10;97.00;;;;;;5014589;28;20112;-78
2022/07/21 03:13:48;;;;;;;6.72;5.90;;;19.10;97.30;;;;;;5002630;28;20505;-79
2022/07/21 03:16:14;;;;;;;7.85;6.40;;;19.20;97.90;;;;;;5007650;28;20112;-78
2022/07/21 03:18:41;;;;;;;11.80;7.30;;;19.20;97.40;;;;;;4977484;28;20058;-78
2022/07/21 03:21:07;;;;;;;9.10;6.38;;;19.10;98.20;;;;;;4972699;28;20121;-78
2022/07/21 03:23:32;;;;;;;7.63;6.35;;;19.00;97.10;;;;;;4972211;28;20117;-78
2022/07/21 03:25:58;;;;;;;7.50;6.28;;;19.10;97.90;;;;;;5014001;28;20045;-78
2022/07/21 03:28:23;;;;;;;7.40;6.63;;;19.20;97.70;;;;;;4988306;28;20029;-78
2022/07/21 03:30:49;;;;;;;10.63;7.32;;;19.20;97.80;;;;;;5001907;28;20045;-78
2022/07/21 03:33:14;;;;;;;8.15;6.53;;;19.20;99.00;;;;;;4996446;28;20054;-78
2022/07/21 03:35:40;;;;;;;7.10;6.25;;;19.10;98.20;;;;;;4998040;28;20048;-78
2022/07/21 03:38:05;;;;;;;9.77;7.32;;;19.10;98.30;;;;;;4997230;28;20406;-78
2022/07/21 03:40:32;;;;;;;7.90;7.10;;;19.10;98.80;;;;;;4998840;28;20076;-78
2022/07/21 03:42:59;;;;;;;8.52;7.47;;;19.10;99.10;;;;;;4972770;28;20474;-78
2022/07/21 03:45:25;;;;;;;8.48;6.47;;;19.10;99.10;;;;;;4992533;28;20497;-78
2022/07/21 03:47:51;;;;;;;10.00;7.05;;;19.00;98.30;;;;;;4973899;28;20053;-78
2022/07/21 03:50:17;;;;;;;6.75;5.90;;;19.00;99.20;;;;;;4999099;28;20025;-78
2022/07/21 03:52:43;;;;;;;8.88;6.95;;;18.90;98.40;;;;;;5009103;28;20121;-78
2022/07/21 03:55:09;;;;;;;8.57;6.50;;;19.00;98.60;;;;;;4984752;28;20042;-78
2022/07/21 03:57:36;;;;;;;9.23;7.05;;;19.10;98.20;;;;;;4997068;28;20410;-78
2022/07/21 04:00:03;;;;;;;7.13;6.43;;;19.00;98.90;;;;;;4992054;28;20046;-78
2022/07/21 04:02:29;;;;;;;9.88;6.47;;;19.00;99.20;;;;;;5002801;28;20034;-78
2022/07/21 04:04:54;;;;;;;7.55;6.72;;;19.00;99.50;;;;;;5017022;28;20036;-78
2022/07/21 04:07:20;;;;;;;7.20;5.72;;;19.10;98.90;;;;;;5002894;28;20023;-78
2022/07/21 04:09:45;;;;;;;7.78;5.40;;;19.30;97.70;;;;;;4971960;28;20038;-78
2022/07/21 04:12:11;;;;;;;7.55;6.00;;;19.30;97.90;;;;;;4989432;28;20018;-78
2022/07/21 04:14:36;;;;;;;6.35;5.45;;;19.30;98.50;;;;;;5007117;28;20043;-78
2022/07/21 04:17:02;;;;;;;6.38;5.25;;;19.10;98.20;;;;;;5005237;28;20125;-78
2022/07/21 04:19:28;;;;;;;7.30;6.55;;;19.30;98.70;;;;;;5014112;28;20417;-78
2022/07/21 04:21:54;;;;;;;8.07;6.78;;;19.40;98.50;;;;;;4990740;28;20432;-78
2022/07/21 04:24:19;;;;;;;11.20;7.43;;;19.30;99.00;;;;;;4992972;28;20120;-78
2022/07/21 04:26:45;;;;;;;7.30;6.03;;;19.30;98.60;;;;;;4991467;28;20513;-78
2022/07/21 04:29:11;;;;;;;10.70;8.63;;;19.20;99.50;;;;;;4993261;28;20033;-78
2022/07/21 04:31:36;;;;;;;9.88;8.88;;;19.20;99.90;;;;;;4986461;28;20026;-78
2022/07/21 04:34:02;;;;;;;14.82;9.27;;;19.20;99.90;;;;;;4973697;28;20564;-78
2022/07/21 04:36:27;;;;;;;8.98;7.88;;;19.20;99.60;;;;;;5004596;28;20044;-77
2022/07/21 04:38:53;;;;;;;8.93;7.63;;;19.30;99.90;;;;;;4987163;28;20056;-78
2022/07/21 04:41:19;;;;;;;8.38;7.57;;;19.40;99.80;;;;;;5005455;28;20489;-78
2022/07/21 04:43:45;;;;;;;13.57;10.85;;;19.60;99.90;;;;;;4975791;28;20026;-78
2022/07/21 04:46:10;;;;;;;10.18;8.88;;;19.60;99.90;;;;;;5006891;28;20037;-77
2022/07/21 04:48:36;;;;;;;12.80;7.38;;;19.60;99.60;;;;;;4982679;28;20096;-78
2022/07/21 04:51:01;;;;;;;14.55;10.80;;;19.70;99.60;;;;;;4965429;28;20046;-78
2022/07/21 04:53:27;;;;;;;10.40;8.43;;;19.80;99.90;;;;;;5002350;28;20055;-78
2022/07/21 04:55:53;;;;;;;11.00;9.48;;;19.80;99.70;;;;;;4976849;28;20034;-77
2022/07/21 04:58:18;;;;;;;9.27;7.78;;;19.80;99.90;;;;;;5005277;28;20029;-77
2022/07/21 05:00:44;;;;;;;18.70;11.48;;;19.80;99.90;;;;;;5008200;28;20148;-78
2022/07/21 05:03:10;;;;;;;11.65;10.23;;;19.80;99.90;;;;;;4992172;28;20049;-78
2022/07/21 05:05:36;;;;;;;10.73;9.63;;;19.80;99.90;;;;;;4990738;28;20034;-78
2022/07/21 05:08:01;;;;;;;11.40;10.20;;;19.90;99.90;;;;;;5007824;28;20041;-78
2022/07/21 05:10:27;;;;;;;11.18;10.05;;;19.90;99.90;;;;;;4987732;28;20666;-78
2022/07/21 05:12:52;;;;;;;14.27;10.90;;;19.90;99.90;;;;;;4995889;28;20034;-78
2022/07/21 05:15:18;;;;;;;15.27;11.07;;;19.80;99.90;;;;;;4993086;28;20401;-78
2022/07/21 05:17:44;;;;;;;14.63;11.75;;;19.90;99.90;;;;;;4962611;28;20041;-78
2022/07/21 05:20:09;;;;;;;10.68;8.90;;;20.00;99.90;;;;;;4991439;28;20110;-78
2022/07/21 05:22:35;;;;;;;10.63;9.15;;;20.00;99.90;;;;;;4978590;28;20031;-78
2022/07/21 05:25:01;;;;;;;12.25;11.00;;;20.00;99.90;;;;;;4991337;28;20046;-78
2022/07/21 05:27:26;;;;;;;14.88;10.50;;;20.00;99.90;;;;;;4977586;28;20058;-78
2022/07/21 05:29:52;;;;;;;13.35;10.77;;;20.00;99.90;;;;;;4986264;28;20034;-78
2022/07/21 05:32:17;;;;;;;12.18;8.38;;;20.10;99.90;;;;;;5001231;28;20488;-78
2022/07/21 05:34:43;;;;;;;12.40;8.70;;;20.10;99.90;;;;;;4974592;28;20026;-78
2022/07/21 05:37:08;;;;;;;14.25;10.13;;;20.10;99.90;;;;;;4981433;28;20042;-78
2022/07/21 05:39:34;;;;;;;14.20;12.70;;;20.10;99.90;;;;;;4996845;28;20050;-78
2022/07/21 05:41:59;;;;;;;13.23;11.80;;;20.20;99.90;;;;;;5015329;28;20482;-78
2022/07/21 05:44:25;;;;;;;15.75;10.40;;;20.20;99.90;;;;;;4973921;28;20037;-78
2022/07/21 05:46:51;;;;;;;13.48;11.55;;;20.20;99.90;;;;;;4995352;28;20088;-78
2022/07/21 05:49:16;;;;;;;12.63;9.40;;;20.20;99.90;;;;;;5004779;28;20034;-78
2022/07/21 05:51:42;;;;;;;14.55;11.23;;;20.30;99.90;;;;;;4978280;28;20033;-77
2022/07/21 05:54:07;;;;;;;10.90;9.13;;;20.30;99.90;;;;;;4977051;28;20022;-78
2022/07/21 05:56:33;;;;;;;12.23;10.05;;;20.30;99.90;;;;;;4997398;28;20033;-78
2022/07/21 05:58:59;;;;;;;13.25;10.80;;;20.20;99.90;;;;;;4972956;28;20058;-78
2022/07/21 06:01:24;;;;;;;10.65;9.38;;;20.30;99.90;;;;;;4994488;28;20111;-77
2022/07/21 06:03:50;;;;;;;10.85;9.65;;;20.40;99.90;;;;;;5001577;28;20041;-78
2022/07/21 06:06:16;;;;;;;12.45;11.13;;;20.40;99.90;;;;;;5006690;28;20034;-78
2022/07/21 06:08:42;;;;;;;14.43;9.48;;;20.50;99.90;;;;;;4957812;28;20046;-77
2022/07/21 06:11:09;;;;;;;11.60;9.32;;;20.50;99.90;;;;;;4987682;28;20097;-78
2022/07/21 06:13:34;;;;;;;11.40;9.93;;;20.50;99.90;;;;;;5012577;28;20030;-78
2022/07/21 06:16:00;;;;;;;11.55;9.88;;;20.50;99.90;;;;;;4989861;28;21001;-78
2022/07/21 06:18:25;;;;;;;11.57;9.90;;;20.70;99.90;;;;;;5030036;28;20037;-78
2022/07/21 06:20:51;;;;;;;11.80;8.57;;;20.80;99.90;;;;;;4993886;28;20037;-77
2022/07/21 06:23:17;;;;;;;16.08;9.95;;;20.80;99.90;;;;;;5014550;28;20494;-77
2022/07/21 06:25:42;;;;;;;11.57;10.48;;;20.80;99.90;;;;;;4995964;28;20036;-78
2022/07/21 06:28:08;;;;;;;10.52;8.60;;;20.90;99.90;;;;;;4993154;28;20497;-78
2022/07/21 06:30:33;;;;;;;10.93;9.23;;;21.10;99.90;;;;;;4996399;28;20437;-78
2022/07/21 06:32:59;;;;;;;10.57;9.00;;;21.10;99.90;;;;;;4999629;28;20029;-77
2022/07/21 06:35:25;;;;;;;9.88;8.82;;;21.20;99.90;;;;;;4992291;28;20538;-78
2022/07/21 06:37:50;;;;;;;11.07;9.35;;;21.20;99.90;;;;;;5004845;28;20401;-78
2022/07/21 06:40:16;;;;;;;5.50;4.13;;;21.30;99.90;;;;;;5021674;28;20042;-77
2022/07/21 06:42:42;;;;;;;10.45;8.30;;;21.40;99.90;;;;;;5007970;28;20108;-79
2022/07/21 06:45:07;;;;;;;9.30;6.38;;;21.40;99.90;;;;;;5010707;28;20132;-79
2022/07/21 06:47:33;;;;;;;13.65;10.20;;;21.40;99.90;;;;;;5006022;28;20030;-79
2022/07/21 06:50:02;;;;;;;11.57;8.57;;;21.50;99.90;;;;;;4992285;28;20446;-79
2022/07/21 06:52:31;;;;;;;13.43;9.60;;;21.60;99.90;;;;;;5028163;28;20188;-79
2022/07/21 06:54:57;;;;;;;13.88;8.30;;;21.60;99.90;;;;;;5024019;28;20034;-79
2022/07/21 06:57:22;;;;;;;16.30;11.18;;;21.50;99.90;;;;;;4993054;28;20557;-79
2022/07/21 06:59:48;;;;;;;8.82;7.90;;;21.60;99.90;;;;;;4990272;28;20044;-79
2022/07/21 07:02:14;;;;;;;8.95;7.80;;;21.70;99.90;;;;;;5010904;28;20117;-78
2022/07/21 07:04:39;;;;;;;9.07;7.45;;;21.90;99.90;;;;;;5009524;28;20046;-79
2022/07/21 07:07:05;;;;;;;11.63;8.02;;;22.00;99.90;;;;;;4995836;28;20084;-79
2022/07/21 07:09:30;;;;;;;9.30;8.02;;;22.10;99.90;;;;;;4975414;28;20426;-79
2022/07/21 07:12:03;;;;;;;11.75;8.93;;;22.20;99.70;;;;;;4977483;28;20033;-79
2022/07/21 07:14:31;;;;;;;9.60;8.15;;;22.20;99.40;;;;;;4993731;28;20386;-79
2022/07/21 07:16:57;;;;;;;10.30;9.23;;;22.40;99.60;;;;;;4989714;28;20030;-79
2022/07/21 07:19:23;;;;;;;8.43;6.63;;;22.60;99.50;;;;;;5011840;28;20171;-78
2022/07/21 07:21:48;;;;;;;9.02;7.93;;;22.60;99.20;;;;;;5006605;28;20026;-77
2022/07/21 07:24:14;;;;;;;13.55;7.25;;;22.80;99.90;;;;;;5014515;28;20048;-77
2022/07/21 07:26:40;;;;;;;10.52;7.03;;;23.20;98.40;;;;;;4995410;28;20022;-77
2022/07/21 07:29:05;;;;;;;10.15;7.75;;;23.20;98.40;;;;;;4996176;28;20033;-77
2022/07/21 07:31:31;;;;;;;10.60;7.05;;;23.60;97.80;;;;;;5008087;28;20484;-77
2022/07/21 07:33:59;;;;;;;10.60;6.43;;;23.90;97.50;;;;;;4993113;28;20030;-77
2022/07/21 07:36:25;;;;;;;9.30;6.70;;;24.30;97.00;;;;;;4993845;28;20037;-77
2022/07/21 07:38:51;;;;;;;7.40;6.35;;;24.50;96.60;;;;;;5008549;28;20026;-77
2022/07/21 07:41:18;;;;;;;9.65;6.38;;;24.60;95.80;;;;;;5008307;28;20478;-77
2022/07/21 07:43:43;;;;;;;6.85;6.15;;;24.70;96.30;;;;;;4989541;28;20116;-77
2022/07/21 07:46:10;;;;;;;7.20;6.18;;;25.00;96.90;;;;;;5024851;28;20550;-77
2022/07/21 07:48:36;;;;;;;8.98;6.30;;;24.70;95.30;;;;;;4977613;28;20524;-77
2022/07/21 07:51:02;;;;;;;7.85;7.05;;;24.10;95.50;;;;;;5027269;28;20109;-78
2022/07/21 07:53:28;;;;;;;7.35;6.45;;;24.20;95.70;;;;;;4993156;28;20195;-77
2022/07/21 07:55:53;;;;;;;8.05;6.35;;;24.50;95.50;;;;;;5007370;28;20034;-77
2022/07/21 07:58:19;;;;;;;8.32;6.30;;;24.30;95.10;;;;;;4976942;28;20087;-77
2022/07/21 08:00:44;;;;;;;8.10;6.53;;;24.40;95.10;;;;;;4979285;28;20072;-77
2022/07/21 08:03:10;;;;;;;11.00;7.13;;;24.90;94.70;;;;;;4995775;28;20038;-77
2022/07/21 08:05:35;;;;;;;10.07;6.55;;;24.90;94.30;;;;;;4995871;28;20120;-78
2022/07/21 08:08:02;;;;;;;8.98;6.20;;;25.00;94.40;;;;;;5015794;28;20429;-77
2022/07/21 08:10:27;;;;;;;7.95;6.90;;;25.00;93.80;;;;;;5010075;28;20076;-78
2022/07/21 08:12:53;;;;;;;9.60;6.47;;;25.50;93.90;;;;;;4996869;28;20037;-77
2022/07/21 08:15:20;;;;;;;8.70;6.20;;;25.60;93.60;;;;;;5029148;28;20487;-78
2022/07/21 08:17:45;;;;;;;8.77;5.32;;;26.50;95.00;;;;;;5017244;28;20029;-78
2022/07/21 08:20:11;;;;;;;6.93;5.55;;;26.20;91.50;;;;;;5012338;28;20345;-78
2022/07/21 08:22:37;;;;;;;8.13;5.85;;;25.60;92.10;;;;;;4991945;28;20029;-78
2022/07/21 08:25:03;;;;;;;7.13;5.18;;;25.70;92.20;;;;;;4992967;28;20040;-78
2022/07/21 08:27:28;;;;;;;6.93;4.80;;;26.00;92.40;;;;;;4993304;28;20113;-78
2022/07/21 08:29:54;;;;;;;8.48;4.45;;;26.90;91.80;;;;;;4994902;28;20121;-78
2022/07/21 08:32:19;;;;;;;5.85;4.60;;;26.40;90.30;;;;;;5015337;28;20076;-78
2022/07/21 08:34:45;;;;;;;6.72;4.80;;;25.90;90.40;;;;;;4993312;28;20017;-78
2022/07/21 08:37:11;;;;;;;6.90;4.28;;;25.90;90.30;;;;;;5012413;28;20038;-78
2022/07/21 08:39:36;;;;;;;7.38;4.50;;;27.00;91.00;;;;;;5031291;28;20069;-78
2022/07/21 08:42:02;;;;;;;7.40;4.15;;;27.00;90.50;;;;;;5030235;28;20033;-78
2022/07/21 08:44:28;;;;;;;6.22;3.90;;;27.40;87.70;;;;;;5008993;28;20036;-78
2022/07/21 08:46:53;;;;;;;7.55;4.40;;;27.50;86.30;;;;;;5011128;28;20038;-79
2022/07/21 08:49:22;;;;;;;6.93;4.53;;;27.50;87.90;;;;;;5012171;28;20029;-78
2022/07/21 08:51:48;;;;;;;5.35;4.43;;;27.60;83.90;;;;;;5012101;28;20026;-78
2022/07/21 08:54:14;;;;;;;5.15;4.18;;;26.50;85.70;;;;;;5010272;28;20030;-78
2022/07/21 08:56:39;;;;;;;5.80;4.75;;;26.50;89.30;;;;;;5026095;28;20030;-79
2022/07/21 08:59:05;;;;;;;5.55;4.90;;;26.70;84.70;;;;;;5008215;28;20045;-78
2022/07/21 09:01:31;;;;;;;7.82;4.57;;;26.10;86.70;;;;;;5025314;28;20033;-78
2022/07/21 09:04:18;;;;;;;8.68;3.90;;;26.70;87.60;;;;;;4981956;28;20306;-78
2022/07/21 09:06:56;;;;;;;5.32;3.90;;;27.00;86.30;;;;;;5007522;28;20437;-79
2022/07/21 09:09:21;;;;;;;4.63;3.88;;;26.40;83.30;;;;;;5006348;28;20042;-79
2022/07/21 09:11:47;;;;;;;5.63;4.55;;;26.60;81.90;;;;;;4998132;28;20040;-78
2022/07/21 09:14:18;;;;;;;7.18;3.83;;;26.80;84.00;;;;;;4978333;28;20474;-78
2022/07/21 09:16:52;;;;;;;6.35;3.47;;;27.10;84.10;;;;;;4995765;28;20083;-79
2022/07/21 09:19:24;;;;;;;7.07;4.18;;;27.40;83.30;;;;;;4994889;28;20065;-79
2022/07/21 09:21:50;;;;;;;5.47;4.07;;;27.60;81.20;;;;;;5012707;28;20033;-79
2022/07/21 09:24:29;;;;;;;4.65;3.70;;;27.60;81.70;;;;;;4997358;28;20029;-79
2022/07/21 09:27:11;;;;;;;4.65;4.00;;;27.40;78.50;;;;;;5005855;28;20041;-78
2022/07/21 09:29:40;;;;;;;4.60;3.55;;;27.20;81.10;;;;;;5007023;28;20018;-79
2022/07/21 09:32:20;;;;;;;5.88;4.45;;;27.30;79.20;;;;;;5007775;28;20052;-79
2022/07/21 09:34:48;;;;;;;7.57;4.28;;;27.60;80.60;;;;;;5011496;28;20026;-79
2022/07/21 09:37:13;;;;;;;5.85;4.20;;;27.70;78.80;;;;;;4996101;28;20072;-79
2022/07/21 09:39:55;;;;;;;8.07;4.43;;;28.00;79.70;;;;;;5014062;28;20065;-79
2022/07/21 09:42:32;;;;;;;4.60;4.10;;;28.10;80.10;;;;;;4980809;28;20029;-79
2022/07/21 09:45:03;;;;;;;8.77;4.45;;;28.20;79.20;;;;;;5001509;28;20034;-79
2022/07/21 09:47:29;;;;;;;8.25;4.20;;;28.30;77.20;;;;;;4992948;28;20037;-79
2022/07/21 09:49:55;;;;;;;6.22;5.35;;;28.30;78.40;;;;;;4977922;28;20041;-79
2022/07/21 09:52:24;;;;;;;6.93;4.65;;;28.30;78.40;;;;;;5011554;28;20147;-79
2022/07/21 09:54:51;;;;;;;4.90;4.35;;;27.60;77.10;;;;;;5010856;28;20045;-80
2022/07/21 09:57:16;;;;;;;6.32;4.57;;;27.90;76.70;;;;;;5012313;28;20125;-80
2022/07/21 09:59:45;;;;;;;5.03;4.47;;;27.30;76.40;;;;;;4984714;28;20128;-79
2022/07/21 10:02:15;;;;;;;8.55;4.57;;;27.90;75.60;;;;;;4998390;28;20149;-79
2022/07/21 10:04:40;;;;;;;5.28;4.75;;;27.80;74.70;;;;;;5006147;28;20153;-78
2022/07/21 10:07:06;;;;;;;8.15;4.35;;;27.80;75.50;;;;;;4991123;28;20029;-78
2022/07/21 10:09:31;;;;;;;5.22;4.60;;;28.10;75.40;;;;;;5008629;28;20114;-78
2022/07/21 10:11:57;;;;;;;7.32;5.28;;;27.60;74.30;;;;;;5009543;28;20022;-77
2022/07/21 10:14:23;;;;;;;6.70;4.32;;;27.00;74.90;;;;;;5015702;28;20414;-79
2022/07/21 10:16:48;;;;;;;6.15;4.95;;;27.00;74.10;;;;;;5012061;28;20437;-78
2022/07/21 10:19:28;;;;;;;6.72;4.95;;;26.70;73.80;;;;;;5023652;28;20022;-78
2022/07/21 10:22:17;;;;;;;5.57;4.95;;;26.60;74.20;;;;;;4991810;28;20040;-78
2022/07/21 10:24:43;;;;;;;6.80;5.00;;;27.10;74.50;;;;;;5007201;28;20022;-79
2022/07/21 10:27:12;;;;;;;8.43;4.63;;;27.20;72.50;;;;;;5028769;28;20029;-79
2022/07/21 10:29:47;;;;;;;9.80;4.93;;;27.60;72.90;;;;;;5009238;28;20041;-79
2022/07/21 10:32:19;;;;;;;8.32;4.43;;;27.40;72.50;;;;;;5007948;28;20504;-79
2022/07/21 10:34:44;;;;;;;3.50;2.97;;;27.60;72.80;;;;;;5002606;28;20026;-79
2022/07/21 10:37:10;;;;;;;5.88;5.13;;;27.40;71.70;;;;;;4991914;28;20048;-79
2022/07/21 10:39:36;;;;;;;5.95;4.45;;;27.20;72.20;;;;;;4975375;28;20078;-80
2022/07/21 10:42:14;;;;;;;7.20;4.55;;;27.40;71.60;;;;;;5009247;28;20117;-78
2022/07/21 10:44:40;;;;;;;8.25;5.32;;;27.50;73.00;;;;;;5021980;28;20056;-78
2022/07/21 10:47:11;;;;;;;8.38;4.78;;;27.60;72.80;;;;;;4984229;28;20485;-78
2022/07/21 10:49:43;;;;;;;7.80;4.03;;;27.30;72.10;;;;;;5011942;28;20041;-79
2022/07/21 10:52:39;;;;;;;6.57;5.18;;;27.00;73.70;;;;;;4989539;28;20030;-79
2022/07/21 10:55:11;;;;;;;7.75;5.55;;;26.10;77.20;;;;;;4986598;28;20300;-80
2022/07/21 10:57:42;;;;;;;9.45;6.07;;;25.90;78.00;;;;;;5021700;28;20026;-80
2022/07/21 11:00:27;;;;;;;5.65;4.88;;;25.90;77.80;;;;;;4982648;28;20176;-80
2022/07/21 11:03:03;;;;;;;6.30;4.72;;;25.50;79.60;;;;;;4994258;28;20109;-77
2022/07/21 11:05:31;;;;;;;6.90;6.13;;;25.30;80.40;;;;;;4981805;28;20061;-81
2022/07/21 11:08:13;;;;;;;7.25;6.13;;;25.00;81.30;;;;;;4958885;28;20073;-79
2022/07/21 11:10:43;;;;;;;7.35;5.65;;;24.90;81.00;;;;;;4955659;28;20121;-79
2022/07/21 11:13:09;;;;;;;8.05;6.22;;;24.70;81.20;;;;;;4992117;28;20505;-79
2022/07/21 11:15:57;;;;;;;10.30;6.30;;;24.50;83.60;;;;;;5014856;28;20112;-79
2022/07/21 11:18:27;;;;;;;8.68;6.47;;;24.40;84.50;;;;;;5000237;28;20030;-79
2022/07/21 11:21:12;;;;;;;8.85;6.53;;;24.10;84.90;;;;;;4956114;28;20069;-79
2022/07/21 11:23:48;;;;;;;8.35;6.70;;;24.00;86.90;;;;;;5000835;28;20034;-80
2022/07/21 11:26:14;;;;;;;;;;;23.80;87.20;;;;;;4990361;28;20113;-80
2022/07/21 11:28:40;;;;;;;6.40;5.80;;;23.60;88.80;;;;;;4975702;28;19925;-80
2022/07/21 11:31:26;;;;;;;8.95;8.10;;;23.60;89.70;;;;;;4962960;28;20146;-80
2022/07/21 11:33:51;;;;;;;10.20;6.50;;;23.40;90.10;;;;;;4997129;28;20026;-80
2022/07/21 11:36:25;;;;;;;9.07;6.60;;;23.40;89.70;;;;;;5009821;28;20091;-80
2022/07/21 11:39:04;;;;;;;5.88;5.38;;;23.30;90.40;;;;;;4975444;28;20038;-80
2022/07/21 11:41:30;;;;;;;7.97;7.18;;;23.20;90.10;;;;;;5009489;28;20107;-80
2022/07/21 11:43:55;;;;;;;7.53;5.10;;;23.10;90.10;;;;;;4991492;28;20069;-79
2022/07/21 11:46:21;;;;;;;8.30;6.78;;;23.10;91.10;;;;;;4987795;28;20030;-79
2022/07/21 11:48:46;;;;;;;11.40;4.65;;;22.80;91.70;;;;;;5005536;28;20050;-79
2022/07/21 11:51:12;;;;;;;7.78;5.32;;;22.70;93.10;;;;;;5010006;28;20026;-79
2022/07/21 11:53:43;;;;;;;5.45;4.65;;;22.60;93.60;;;;;;4976978;28;20026;-79
2022/07/21 11:56:15;;;;;;;4.07;3.63;;;22.60;94.10;;;;;;4996268;28;20033;-79
2022/07/21 11:58:42;;;;;;;6.05;4.85;;;22.50;94.40;;;;;;4998195;28;20030;-79
2022/07/21 12:01:08;;;;;;;4.82;4.43;;;22.50;95.60;;;;;;4993381;28;20494;-79
2022/07/21 12:03:33;;;;;;;5.82;4.35;;;22.50;95.30;;;;;;5004508;28;20029;-79
2022/07/21 12:06:00;;;;;;;5.45;4.95;;;22.50;95.40;;;;;;4992117;28;20033;-77
2022/07/21 12:08:26;;;;;;;7.00;4.43;;;22.30;95.90;;;;;;5009585;28;20037;-77
2022/07/21 12:11:01;;;;;;;6.18;4.47;;;22.20;96.60;;;;;;5021881;28;20524;-77
2022/07/21 12:13:27;;;;;;;5.93;4.47;;;22.20;97.20;;;;;;5001289;28;20029;-77
2022/07/21 12:15:52;;;;;;;6.03;4.93;;;22.20;96.80;;;;;;5004875;28;20095;-78
2022/07/21 12:18:20;;;;;;;6.85;4.78;;;22.20;96.80;;;;;;4997907;28;20156;-77
2022/07/21 12:20:46;;;;;;;7.40;4.97;;;22.10;98.40;;;;;;4996319;28;20056;-78
2022/07/21 12:23:28;;;;;;;7.45;5.20;;;22.10;97.80;;;;;;5001896;28;20470;-77
2022/07/21 12:25:54;;;;;;;6.65;5.28;;;22.20;99.00;;;;;;4976651;28;20090;-77
2022/07/21 12:28:20;;;;;;;5.68;4.60;;;22.30;98.20;;;;;;5008158;28;20104;-78
2022/07/21 12:30:47;;;;;;;6.65;4.82;;;22.40;99.00;;;;;;5007849;28;20509;-77
2022/07/21 12:33:23;;;;;;;6.80;4.60;;;22.30;99.20;;;;;;4996211;28;20033;-77
2022/07/21 12:36:03;;;;;;;;;;;22.30;99.00;;;;;;5000468;28;20061;-77
2022/07/21 12:38:40;;;;;;;5.55;4.25;;;22.30;99.20;;;;;;4978365;28;20428;-78
2022/07/21 12:41:06;;;;;;;5.07;4.35;;;22.40;98.70;;;;;;5019510;28;20075;-78
2022/07/21 12:43:31;;;;;;;5.15;3.80;;;22.30;99.70;;;;;;4998901;28;20501;-78
2022/07/21 12:46:19;;;;;;;5.82;4.55;;;22.20;99.90;;;;;;5002213;28;20049;-79